To NAV CANADA Home Page Login to a new session Search on AWWS site Disclaimer Vers la page française équivalente Tips FAQ What's new on the site To the Forecasts and Observations / NOTAM section To "File a Flight Plan" website Publications and other links Update of the User's profile FIC Telephone Numbers My Weather Data Folder Route Weather Data Regional Weather Data Local Weather Data To the Forecasts and Observations / NOTAM section
Request Generated 04/25/2019 at 08:05:11 UTC . Weather information available at that time is displayed.

METAR/TAF

LYNN LAKE/MB    (show WxCam)

SPECI CYYL 250802Z AUTO 03009KT 9SM BKN018 OVC055 M01/M04 A2977 RMK SLP103=
METAR CYYL 250800Z AUTO 03009KT 9SM SCT018 OVC055 M01/M04 A2977 RMK SLP103=
SPECI CYYL 250755Z AUTO 03009G15KT 9SM SCT018 OVC060 M01/M04 A2977 RMK SLP103=
METAR CYYL 250700Z AUTO 03006KT 9SM OVC018 M00/M03 A2976 RMK SLP099=
SPECI CYYL 250636Z AUTO 03008G15KT 9SM BKN018 OVC060 M00/M03 A2975 RMK SLP096=
SPECI CYYL 250623Z AUTO 02010KT 9SM -SN BKN018 BKN055 BKN068 OVC089 M01/M03 A2975 RMK SLP096=
SPECI CYYL 250606Z AUTO 02006KT 9SM -SN SCT055 SCT089 BKN120 M01/M02 A2975 RMK SLP095=
METAR CYYL 250600Z AUTO 02009KT 9SM FEW055 BKN120 M01/M02 A2975 RMK SLP095=

TAF CYYL 250638Z 2507/2519 02010KT P6SM FEW020 BKN120 TEMPO 2507/2513
P6SM -SN BKN020
RMK FCST BASED ON AUTO OBS. NXT FCST BY 251300Z=
Your time UTC time
Weather data provided by Environment Canada and NAV CANADA